Time;durP1;ratioP1;P1;durP2;ratioP2;P2;SDS_P1;SDS_P2;PMS_P1;PMS_P2;Temp;Humidity;BMP_temperature;BMP_pressure;BME280_temperature;BME280_humidity;BME280_pressure;Samples;Min_cycle;Max_cycle;Signal;HPM_P1;HPM_P2
2021/03/24 00:01:08;;;;;;;18.73;7.47;;;2.90;99.90;;;;;;5022799;28;20522;-50
2021/03/24 00:03:35;;;;;;;13.97;7.37;;;2.70;99.90;;;;;;5010406;28;20559;-50
2021/03/24 00:06:01;;;;;;;15.93;7.80;;;2.70;99.90;;;;;;5019276;28;20479;-50
2021/03/24 00:08:28;;;;;;;14.87;7.80;;;2.60;99.90;;;;;;5022912;28;20564;-51
2021/03/24 00:10:54;;;;;;;12.50;7.50;;;2.60;99.90;;;;;;5030756;28;20462;-51
2021/03/24 00:13:22;;;;;;;19.80;8.30;;;2.70;99.90;;;;;;5011676;28;20485;-51
2021/03/24 00:15:49;;;;;;;11.37;7.00;;;2.90;99.90;;;;;;5010344;28;20554;-50
2021/03/24 00:18:16;;;;;;;11.50;7.20;;;2.90;99.90;;;;;;5016808;28;20633;-50
2021/03/24 00:20:44;;;;;;;13.63;7.33;;;2.60;99.90;;;;;;5023056;28;20834;-50
2021/03/24 00:23:11;;;;;;;13.17;7.20;;;2.50;99.90;;;;;;5010955;28;20517;-51
2021/03/24 00:25:38;;;;;;;13.93;7.33;;;2.40;99.90;;;;;;5012421;28;20515;-50
2021/03/24 00:28:06;;;;;;;11.77;6.77;;;2.40;99.90;;;;;;5010900;28;20468;-50
2021/03/24 00:30:37;;;;;;;11.47;7.50;;;2.30;99.90;;;;;;5018003;28;21153;-51
2021/03/24 00:33:04;;;;;;;14.53;7.90;;;2.40;99.90;;;;;;5030580;28;20464;-50
2021/03/24 00:35:30;;;;;;;10.80;7.20;;;2.40;99.90;;;;;;5013414;28;20469;-51
2021/03/24 00:37:58;;;;;;;16.70;7.73;;;2.50;99.90;;;;;;5011426;28;20469;-52
2021/03/24 00:40:27;;;;;;;10.47;6.53;;;2.40;99.90;;;;;;5010579;28;20445;-51
2021/03/24 00:42:54;;;;;;;10.00;6.00;;;2.40;99.90;;;;;;5027373;28;20488;-51
2021/03/24 00:45:20;;;;;;;12.20;6.40;;;2.40;99.90;;;;;;5011025;28;20470;-51
2021/03/24 00:47:48;;;;;;;10.40;6.17;;;2.50;99.90;;;;;;5011017;28;20464;-51
2021/03/24 00:50:17;;;;;;;14.53;6.23;;;2.50;99.90;;;;;;5025627;28;20473;-50
2021/03/24 00:52:44;;;;;;;14.20;6.50;;;2.50;99.90;;;;;;5010277;28;20477;-51
2021/03/24 00:55:12;;;;;;;15.03;5.70;;;2.50;99.90;;;;;;5009818;28;20495;-50
2021/03/24 00:57:38;;;;;;;10.20;5.80;;;2.50;99.90;;;;;;5022998;28;20539;-50
2021/03/24 01:00:07;;;;;;;15.73;6.03;;;2.50;99.90;;;;;;5010447;28;20451;-51
2021/03/24 01:02:33;;;;;;;12.60;6.00;;;2.50;99.90;;;;;;5019585;28;21005;-50
2021/03/24 01:05:02;;;;;;;13.63;6.50;;;2.50;99.90;;;;;;5015980;28;20985;-50
2021/03/24 01:07:29;;;;;;;10.70;6.50;;;2.50;99.90;;;;;;5025282;28;20888;-50
2021/03/24 01:09:55;;;;;;;11.10;5.77;;;2.40;99.90;;;;;;5010264;28;20456;-50
2021/03/24 01:12:22;;;;;;;8.60;6.10;;;2.50;99.90;;;;;;5013819;28;21030;-50
2021/03/24 01:14:48;;;;;;;12.93;6.07;;;2.60;99.90;;;;;;5010096;28;20467;-50
2021/03/24 01:17:15;;;;;;;11.13;6.07;;;2.60;99.90;;;;;;5009764;28;20472;-51
2021/03/24 01:19:41;;;;;;;12.17;6.30;;;2.70;99.90;;;;;;5020301;28;20467;-50
2021/03/24 01:22:08;;;;;;;14.43;6.47;;;2.70;99.90;;;;;;5033439;28;20535;-50
2021/03/24 01:24:35;;;;;;;10.13;6.10;;;2.40;99.90;;;;;;5031857;28;20985;-51
2021/03/24 01:27:02;;;;;;;11.27;6.07;;;2.20;99.90;;;;;;5019741;28;20523;-50
2021/03/24 01:29:28;;;;;;;10.50;6.10;;;2.30;99.90;;;;;;5013706;28;20973;-51
2021/03/24 01:31:54;;;;;;;13.70;6.53;;;2.40;99.90;;;;;;5015966;28;20533;-51
2021/03/24 01:34:21;;;;;;;14.57;6.50;;;2.40;99.90;;;;;;5023723;28;20524;-50
2021/03/24 01:36:47;;;;;;;9.30;5.43;;;2.30;99.90;;;;;;5033203;28;20452;-51
2021/03/24 01:39:15;;;;;;;9.67;5.40;;;2.30;99.90;;;;;;5029789;28;20475;-51
2021/03/24 01:41:41;;;;;;;11.17;5.90;;;2.50;99.90;;;;;;5012152;28;20499;-51
2021/03/24 01:44:07;;;;;;;11.93;6.00;;;2.50;99.90;;;;;;5019011;28;20491;-51
2021/03/24 01:46:43;;;;;;;10.30;5.77;;;2.60;99.90;;;;;;5025703;28;20465;-50
2021/03/24 01:49:16;;;;;;;10.33;6.00;;;2.50;99.90;;;;;;5021044;28;20473;-52
2021/03/24 01:51:46;;;;;;;7.10;5.27;;;2.50;99.90;;;;;;5012745;28;20918;-49
2021/03/24 01:54:16;;;;;;;10.07;5.43;;;2.50;99.90;;;;;;5013297;28;20444;-49
2021/03/24 01:56:47;;;;;;;10.00;5.80;;;2.50;99.90;;;;;;5012278;28;20540;-50
2021/03/24 01:59:15;;;;;;;7.70;5.23;;;2.50;99.90;;;;;;5014492;28;20466;-51
2021/03/24 02:01:42;;;;;;;10.40;5.93;;;2.40;99.90;;;;;;5012591;28;20504;-50
2021/03/24 02:04:08;;;;;;;14.63;6.20;;;2.40;99.90;;;;;;5017122;28;20496;-51
2021/03/24 02:06:41;;;;;;;9.50;6.03;;;2.40;99.90;;;;;;5031085;28;20456;-50
2021/03/24 02:09:24;;;;;;;10.80;5.90;;;2.50;99.90;;;;;;5017252;28;20531;-51
2021/03/24 02:11:56;;;;;;;12.93;6.13;;;2.40;99.90;;;;;;5026676;28;20492;-51
2021/03/24 02:14:29;;;;;;;10.90;5.63;;;2.50;99.90;;;;;;5032381;28;20811;-50
2021/03/24 02:16:57;;;;;;;11.53;6.53;;;2.40;99.90;;;;;;5023732;28;20469;-51
2021/03/24 02:19:41;;;;;;;10.93;5.73;;;2.20;99.90;;;;;;5012978;28;20465;-51
2021/03/24 02:22:11;;;;;;;11.50;6.47;;;2.00;99.90;;;;;;5020025;28;21032;-50
2021/03/24 02:24:46;;;;;;;11.93;7.03;;;1.90;99.90;;;;;;5020612;28;20487;-51
2021/03/24 02:27:16;;;;;;;14.27;7.30;;;1.80;99.90;;;;;;5023828;28;20509;-50
2021/03/24 02:29:48;;;;;;;14.53;7.23;;;1.70;99.90;;;;;;5012726;28;20456;-50
2021/03/24 02:32:16;;;;;;;17.27;6.93;;;1.80;99.90;;;;;;5022250;28;20563;-50
2021/03/24 02:34:45;;;;;;;11.33;6.73;;;1.70;99.90;;;;;;5032195;28;20454;-50
2021/03/24 02:37:13;;;;;;;17.00;7.30;;;1.70;99.90;;;;;;5011433;28;21175;-49
2021/03/24 02:39:41;;;;;;;12.10;6.80;;;1.70;99.90;;;;;;5011244;28;20822;-49
2021/03/24 02:42:10;;;;;;;12.80;6.33;;;1.60;99.90;;;;;;5018789;28;20518;-50
2021/03/24 02:44:39;;;;;;;11.80;5.97;;;1.60;99.90;;;;;;5012238;28;20580;-50
2021/03/24 02:47:07;;;;;;;11.20;6.50;;;1.80;99.90;;;;;;5011532;28;20472;-51
2021/03/24 02:49:36;;;;;;;10.13;6.20;;;1.80;99.90;;;;;;5012187;28;20460;-49
2021/03/24 02:52:03;;;;;;;11.60;5.47;;;1.90;99.90;;;;;;5015546;28;20480;-50
2021/03/24 02:54:35;;;;;;;9.23;5.33;;;1.80;99.90;;;;;;5023663;28;20465;-51
2021/03/24 02:57:03;;;;;;;11.30;5.23;;;1.90;99.90;;;;;;5030802;28;20467;-50
2021/03/24 02:59:29;;;;;;;9.90;5.20;;;1.90;99.90;;;;;;5031715;28;20456;-50
2021/03/24 03:02:04;;;;;;;13.13;5.50;;;1.90;99.90;;;;;;5013779;28;21036;-51
2021/03/24 03:04:36;;;;;;;12.30;6.37;;;2.00;99.90;;;;;;5011796;28;20477;-51
2021/03/24 03:07:07;;;;;;;10.23;6.37;;;2.00;99.90;;;;;;5017778;28;20466;-50
2021/03/24 03:09:44;;;;;;;12.20;6.30;;;2.00;99.90;;;;;;5019980;28;20470;-51
2021/03/24 03:12:18;;;;;;;15.60;7.10;;;2.00;99.90;;;;;;5014530;28;20990;-50
2021/03/24 03:14:52;;;;;;;12.80;7.00;;;1.90;99.90;;;;;;5031269;28;20463;-51
2021/03/24 03:17:25;;;;;;;13.90;7.17;;;2.00;99.90;;;;;;5014185;28;21015;-50
2021/03/24 03:19:56;;;;;;;11.63;6.20;;;2.00;99.90;;;;;;5015711;28;20492;-50
2021/03/24 03:22:28;;;;;;;10.40;6.37;;;1.90;99.90;;;;;;5067130;22;20505;-47
2021/03/24 03:24:58;;;;;;;13.87;6.83;;;1.90;99.90;;;;;;5050488;28;20447;-46
2021/03/24 03:27:27;;;;;;;15.47;6.97;;;1.90;99.90;;;;;;5049898;28;20929;-47
2021/03/24 03:29:57;;;;;;;14.07;7.27;;;1.80;99.90;;;;;;5050402;28;20836;-47
2021/03/24 03:32:25;;;;;;;15.50;7.40;;;1.60;99.90;;;;;;5041522;28;20997;-47
2021/03/24 03:34:57;;;;;;;11.47;6.87;;;1.60;99.90;;;;;;5018716;28;20487;-46
2021/03/24 03:37:25;;;;;;;13.80;6.67;;;1.60;99.90;;;;;;5028263;28;20460;-47
2021/03/24 03:39:53;;;;;;;11.20;7.37;;;1.70;99.90;;;;;;5043151;28;20446;-46
2021/03/24 03:42:21;;;;;;;13.63;6.97;;;1.70;99.90;;;;;;5039254;28;20487;-46
2021/03/24 03:44:48;;;;;;;14.40;7.37;;;1.80;99.90;;;;;;5029360;28;20464;-46
2021/03/24 03:47:15;;;;;;;10.10;6.90;;;1.70;99.90;;;;;;5029677;28;20471;-47
2021/03/24 03:49:43;;;;;;;12.17;6.57;;;1.60;99.90;;;;;;5037333;28;20463;-46
2021/03/24 03:52:27;;;;;;;11.17;6.07;;;1.70;99.90;;;;;;5035156;28;20476;-46
2021/03/24 03:55:02;;;;;;;12.67;7.23;;;1.70;99.90;;;;;;5036145;28;21025;-47
2021/03/24 03:57:34;;;;;;;8.63;5.47;;;1.80;99.90;;;;;;5040117;28;20450;-46
2021/03/24 04:00:11;;;;;;;11.90;6.70;;;1.70;99.90;;;;;;5030874;28;20448;-45
2021/03/24 04:02:41;;;;;;;11.70;7.13;;;1.70;99.90;;;;;;5030539;28;20475;-46
2021/03/24 04:05:15;;;;;;;12.50;6.73;;;1.60;99.90;;;;;;5030772;28;20462;-46
2021/03/24 04:07:46;;;;;;;12.20;7.20;;;1.50;99.90;;;;;;5030776;28;20504;-45
2021/03/24 04:10:13;;;;;;;8.67;6.30;;;1.50;99.90;;;;;;5030698;28;20505;-47
2021/03/24 04:12:42;;;;;;;12.00;7.10;;;1.50;99.90;;;;;;5033139;28;20539;-46
2021/03/24 04:15:12;;;;;;;11.43;7.17;;;1.50;99.90;;;;;;5031351;28;20462;-46
2021/03/24 04:17:45;;;;;;;16.80;8.90;;;1.50;99.90;;;;;;5030765;28;20455;-45
2021/03/24 04:20:16;;;;;;;22.60;11.17;;;1.40;99.90;;;;;;5030430;28;20456;-46
2021/03/24 04:22:44;;;;;;;20.23;11.60;;;1.40;99.90;;;;;;5030541;28;20482;-47
2021/03/24 04:25:16;;;;;;;25.23;11.37;;;1.40;99.90;;;;;;5035101;28;21130;-46
2021/03/24 04:27:45;;;;;;;22.63;11.20;;;1.40;99.90;;;;;;5039168;28;20455;-46
2021/03/24 04:30:15;;;;;;;17.80;9.43;;;1.40;99.90;;;;;;5030379;28;20459;-46
2021/03/24 04:32:42;;;;;;;17.47;8.60;;;1.40;99.90;;;;;;5029596;28;20507;-46
2021/03/24 04:35:14;;;;;;;18.03;9.80;;;1.10;99.90;;;;;;5032770;28;21119;-47
2021/03/24 04:37:45;;;;;;;18.00;9.60;;;1.20;99.90;;;;;;5050055;28;20994;-46
2021/03/24 04:40:19;;;;;;;16.97;9.97;;;1.00;99.90;;;;;;5046198;28;20448;-47
2021/03/24 04:42:50;;;;;;;17.03;8.97;;;0.80;99.90;;;;;;5034819;28;20482;-46
2021/03/24 04:45:27;;;;;;;19.40;9.10;;;0.90;99.90;;;;;;5037833;28;20447;-47
2021/03/24 04:47:56;;;;;;;14.97;9.53;;;1.00;99.90;;;;;;5050225;28;20449;-46
2021/03/24 04:50:28;;;;;;;18.53;9.50;;;0.90;99.90;;;;;;5045607;28;20446;-47
2021/03/24 04:52:56;;;;;;;24.10;9.53;;;1.00;99.90;;;;;;5030126;28;20975;-47
2021/03/24 04:55:25;;;;;;;14.03;8.13;;;1.10;99.90;;;;;;5033605;28;20458;-46
2021/03/24 04:57:56;;;;;;;15.43;8.40;;;1.20;99.90;;;;;;5033982;28;20447;-46
2021/03/24 05:00:34;;;;;;;18.43;9.50;;;1.30;99.90;;;;;;5019381;28;20459;-47
2021/03/24 05:03:07;;;;;;;14.17;8.87;;;1.00;99.90;;;;;;5033739;28;20483;-46
2021/03/24 05:05:41;;;;;;;10.50;7.40;;;0.90;99.90;;;;;;5030987;28;20456;-46
2021/03/24 05:08:16;;;;;;;16.47;8.60;;;0.90;99.90;;;;;;5014070;28;20455;-46
2021/03/24 05:10:42;;;;;;;13.80;7.00;;;0.90;99.90;;;;;;5025218;28;20975;-47
2021/03/24 05:13:18;;;;;;;15.43;7.80;;;1.00;99.90;;;;;;5034980;28;20460;-46
2021/03/24 05:15:53;;;;;;;14.97;8.20;;;0.80;99.90;;;;;;5028389;28;20533;-46
2021/03/24 05:18:20;;;;;;;16.63;8.17;;;1.00;99.90;;;;;;5033562;28;20943;-45
2021/03/24 05:20:54;;;;;;;13.17;7.97;;;1.00;99.90;;;;;;5033307;28;20459;-46
2021/03/24 05:23:23;;;;;;;15.80;7.90;;;0.90;99.90;;;;;;5033501;28;20509;-46
2021/03/24 05:25:55;;;;;;;11.47;7.47;;;1.00;99.90;;;;;;5032697;28;20452;-46
2021/03/24 05:28:27;;;;;;;13.50;8.27;;;1.10;99.90;;;;;;5033501;28;20455;-46
2021/03/24 05:30:59;;;;;;;15.50;8.80;;;1.20;99.90;;;;;;5022820;28;20448;-45
2021/03/24 05:33:28;;;;;;;16.70;10.00;;;1.20;99.90;;;;;;5025397;28;20457;-45
2021/03/24 05:36:06;;;;;;;19.77;11.30;;;1.10;99.90;;;;;;5033166;28;20482;-45
2021/03/24 05:38:35;;;;;;;18.30;9.53;;;1.10;99.90;;;;;;5033515;28;20491;-46
2021/03/24 05:41:10;;;;;;;14.10;8.00;;;1.20;99.90;;;;;;5033499;28;20480;-46
2021/03/24 05:44:11;;;;;;;16.97;7.90;;;1.30;99.90;;;;;;5032827;28;20512;-46
2021/03/24 05:46:57;;;;;;;17.27;6.77;;;1.30;99.90;;;;;;5033202;28;20482;-46
2021/03/24 05:49:38;;;;;;;12.87;7.50;;;1.40;99.90;;;;;;5033213;28;20476;-46
2021/03/24 05:52:23;;;;;;;16.97;8.30;;;1.40;99.90;;;;;;5032900;28;20490;-45
2021/03/24 05:55:09;;;;;;;15.77;9.70;;;1.30;99.90;;;;;;5032597;28;20452;-46
2021/03/24 05:58:04;;;;;;;20.10;9.90;;;1.20;99.90;;;;;;5033027;28;20442;-46
2021/03/24 06:00:38;;;;;;;23.37;10.90;;;1.20;99.90;;;;;;5031084;28;20466;-46
2021/03/24 06:03:12;;;;;;;18.70;10.70;;;1.40;99.90;;;;;;5032773;28;20481;-46
2021/03/24 06:05:46;;;;;;;26.53;12.83;;;1.50;99.90;;;;;;5012286;28;20464;-47
2021/03/24 06:08:50;;;;;;;23.33;12.30;;;1.60;99.90;;;;;;5030379;28;20463;-47
2021/03/24 06:11:46;;;;;;;20.00;11.30;;;1.80;99.90;;;;;;5025595;28;20460;-45
2021/03/24 06:14:35;;;;;;;22.67;10.63;;;2.20;99.90;;;;;;5032693;28;20453;-46
2021/03/24 06:17:35;;;;;;;19.10;10.47;;;3.20;99.90;;;;;;5032430;28;20868;-47
2021/03/24 06:20:13;;;;;;;26.60;12.13;;;4.70;99.90;;;;;;5019378;28;20464;-46
2021/03/24 06:22:54;;;;;;;31.37;13.87;;;6.00;99.90;;;;;;5031846;28;21008;-46
2021/03/24 06:25:40;;;;;;;31.50;14.63;;;7.00;99.90;;;;;;5031767;28;20465;-46
2021/03/24 06:28:28;;;;;;;32.33;12.93;;;7.80;99.90;;;;;;5030130;28;20942;-46
2021/03/24 06:31:04;;;;;;;17.63;9.00;;;8.60;99.90;;;;;;5031196;28;20474;-46
2021/03/24 06:34:00;;;;;;;15.97;7.97;;;9.20;99.90;;;;;;5012621;28;20520;-47
2021/03/24 06:36:50;;;;;;;23.10;9.47;;;9.70;99.90;;;;;;5012170;28;20455;-46
2021/03/24 06:40:00;;;;;;;14.67;8.30;;;10.30;99.90;;;;;;5015112;28;20517;-47
2021/03/24 06:42:53;;;;;;;18.90;8.93;;;10.80;99.90;;;;;;5016576;28;20476;-46
2021/03/24 06:45:38;;;;;;;12.93;8.13;;;11.20;99.90;;;;;;5028598;28;20947;-47
2021/03/24 06:48:19;;;;;;;15.27;8.90;;;11.60;99.90;;;;;;5025196;28;20452;-47
2021/03/24 06:51:23;;;;;;;14.73;9.47;;;12.10;99.90;;;;;;5031397;28;20449;-47
2021/03/24 06:54:28;;;;;;;16.80;8.00;;;12.60;99.90;;;;;;5031755;28;20452;-47
2021/03/24 06:57:39;;;;;;;11.80;7.97;;;12.60;99.90;;;;;;4969146;28;20761;-47
2021/03/24 07:00:27;;;;;;;11.30;6.77;;;13.00;99.40;;;;;;5001528;28;20460;-46
2021/03/24 07:03:31;;;;;;;14.30;7.87;;;12.80;98.90;;;;;;5030498;28;20530;-47
2021/03/24 07:06:23;;;;;;;11.60;6.37;;;13.20;98.40;;;;;;4995545;28;20909;-46
2021/03/24 07:09:10;;;;;;;7.63;5.17;;;13.10;97.30;;;;;;5030178;28;20452;-47
2021/03/24 07:11:59;;;;;;;10.57;6.73;;;12.90;98.20;;;;;;5011786;28;20464;-47
2021/03/24 07:14:48;;;;;;;10.10;6.63;;;12.50;97.30;;;;;;5024067;28;20461;-47
2021/03/24 07:17:47;;;;;;;6.33;4.90;;;11.80;98.30;;;;;;5030794;28;20460;-47
2021/03/24 07:21:07;;;;;;;8.90;5.60;;;11.90;98.80;;;;;;5023556;28;20451;-56
2021/03/24 07:24:14;;;;;;;7.60;4.60;;;11.80;98.30;;;;;;4945316;29;20558;-47
2021/03/24 07:27:00;;;;;;;12.97;5.80;;;12.10;99.10;;;;;;5019605;28;20475;-47
2021/03/24 07:29:58;;;;;;;15.43;5.90;;;13.00;98.20;;;;;;5029418;28;20463;-47
2021/03/24 07:32:35;;;;;;;9.90;5.60;;;11.90;97.40;;;;;;5030263;28;20595;-47
2021/03/24 07:35:13;;;;;;;12.10;5.10;;;12.60;98.10;;;;;;5029716;28;20456;-47
2021/03/24 07:38:11;;;;;;;5.53;3.90;;;12.70;96.90;;;;;;5021080;28;20870;-47
2021/03/24 07:41:29;;;;;;;6.40;3.87;;;12.90;97.50;;;;;;5030663;28;20452;-47
2021/03/24 07:44:18;;;;;;;7.97;3.17;;;13.70;96.40;;;;;;5031121;28;20491;-47
2021/03/24 07:47:21;;;;;;;4.50;2.97;;;14.20;94.50;;;;;;5030809;28;20507;-47
2021/03/24 07:49:58;;;;;;;7.73;3.30;;;14.00;93.60;;;;;;5030783;28;20632;-48
2021/03/24 07:52:48;;;;;;;6.97;4.00;;;13.00;94.20;;;;;;5030768;28;20475;-47
2021/03/24 07:55:25;;;;;;;5.40;3.30;;;13.90;94.20;;;;;;5011433;28;20441;-47
2021/03/24 07:58:01;;;;;;;4.80;3.00;;;13.80;95.00;;;;;;5010714;28;20500;-47
2021/03/24 08:00:34;;;;;;;5.70;2.43;;;14.80;94.40;;;;;;5010914;28;20456;-47
2021/03/24 08:03:05;;;;;;;3.40;2.37;;;14.20;93.30;;;;;;5017396;28;20477;-47
2021/03/24 08:06:03;;;;;;;3.10;2.43;;;14.30;91.10;;;;;;5029612;28;20870;-47
2021/03/24 08:08:44;;;;;;;3.53;2.47;;;14.80;92.20;;;;;;5029820;28;20479;-47
2021/03/24 08:11:19;;;;;;;4.00;2.23;;;13.90;91.40;;;;;;5030394;28;20468;-47
2021/03/24 08:14:01;;;;;;;2.50;2.30;;;14.00;91.60;;;;;;5030171;28;20455;-47
2021/03/24 08:16:39;;;;;;;3.57;2.80;;;14.00;91.50;;;;;;5012694;28;20511;-47
2021/03/24 08:20:03;;;;;;;2.90;2.20;;;14.10;91.30;;;;;;5029372;28;20448;-47
2021/03/24 08:23:15;;;;;;;2.60;2.20;;;13.70;90.70;;;;;;4943708;28;20496;-47
2021/03/24 08:26:03;;;;;;;3.40;2.57;;;13.30;91.70;;;;;;5010783;28;20205;-47
2021/03/24 08:28:37;;;;;;;4.73;2.30;;;14.20;90.50;;;;;;5029791;28;20452;-47
2021/03/24 08:31:39;;;;;;;3.93;2.60;;;14.50;91.30;;;;;;5033292;28;20526;-47
2021/03/24 08:34:20;;;;;;;3.00;2.43;;;14.30;91.70;;;;;;5014742;28;20440;-47
2021/03/24 08:37:30;;;;;;;5.00;3.30;;;14.60;91.20;;;;;;5033558;28;20531;-47
2021/03/24 08:40:19;;;;;;;3.07;2.63;;;15.10;89.90;;;;;;5034070;28;20459;-47
2021/03/24 08:43:13;;;;;;;4.80;2.97;;;15.10;91.90;;;;;;5033907;28;20818;-47
2021/03/24 08:45:49;;;;;;;5.03;3.20;;;15.40;90.40;;;;;;5033416;28;20444;-47
2021/03/24 08:48:24;;;;;;;3.90;2.87;;;15.70;90.60;;;;;;5033992;28;20450;-47
2021/03/24 08:50:57;;;;;;;3.33;2.73;;;15.80;90.90;;;;;;5033861;28;20440;-47
2021/03/24 08:53:36;;;;;;;3.20;2.90;;;15.00;90.80;;;;;;5033267;28;20441;-47
2021/03/24 08:56:12;;;;;;;5.27;2.40;;;15.30;90.20;;;;;;5033185;28;21020;-47
2021/03/24 08:58:47;;;;;;;2.70;2.13;;;15.40;90.60;;;;;;5024145;28;20444;-48
2021/03/24 09:01:42;;;;;;;5.30;2.87;;;16.10;88.50;;;;;;5033519;28;20468;-47
2021/03/24 09:04:33;;;;;;;4.20;2.80;;;16.10;89.30;;;;;;5033518;28;20484;-48
2021/03/24 09:07:06;;;;;;;5.57;2.90;;;14.70;91.00;;;;;;5033396;28;20455;-48
2021/03/24 09:09:45;;;;;;;2.90;2.50;;;15.00;91.60;;;;;;5033415;28;20459;-47
2021/03/24 09:12:19;;;;;;;6.93;2.50;;;14.90;89.80;;;;;;5033246;28;21160;-47
2021/03/24 09:14:58;;;;;;;4.20;2.40;;;15.30;90.40;;;;;;5032773;28;20483;-48
2021/03/24 09:17:36;;;;;;;3.03;2.57;;;15.80;90.70;;;;;;5033641;28;20830;-48
2021/03/24 09:20:42;;;;;;;2.53;2.00;;;16.20;88.50;;;;;;5033280;28;20536;-48
2021/03/24 09:23:41;;;;;;;2.07;1.90;;;16.80;89.40;;;;;;5069792;22;20517;-51
2021/03/24 09:26:32;;;;;;;9.03;2.60;;;17.10;86.30;;;;;;5053658;28;20504;-52
2021/03/24 09:29:14;;;;;;;2.80;2.30;;;16.80;87.70;;;;;;5043380;28;20836;-50
2021/03/24 09:31:56;;;;;;;3.23;1.90;;;16.90;86.20;;;;;;5047011;28;21057;-51
2021/03/24 09:34:41;;;;;;;7.73;2.30;;;16.90;87.70;;;;;;5014030;28;20452;-51
2021/03/24 09:37:10;;;;;;;4.00;2.70;;;16.80;84.60;;;;;;5017053;28;20818;-51
2021/03/24 09:39:46;;;;;;;2.70;2.20;;;16.30;86.70;;;;;;5033274;28;20444;-50
2021/03/24 09:42:21;;;;;;;4.10;2.53;;;15.60;90.40;;;;;;5026952;28;20523;-50
2021/03/24 09:45:00;;;;;;;2.50;2.30;;;16.30;85.40;;;;;;5013303;28;20488;-50
2021/03/24 09:47:37;;;;;;;2.40;2.20;;;16.30;89.60;;;;;;5013450;28;20446;-51
2021/03/24 09:50:20;;;;;;;4.37;2.30;;;16.50;88.70;;;;;;5040621;28;20454;-51
2021/03/24 09:52:52;;;;;;;2.50;2.20;;;17.10;86.50;;;;;;5016886;28;20466;-51
2021/03/24 09:55:33;;;;;;;3.83;2.30;;;17.10;84.40;;;;;;5043884;28;20449;-50
2021/03/24 09:58:44;;;;;;;6.60;2.50;;;16.60;80.10;;;;;;5031283;28;20460;-50
2021/03/24 10:01:34;;;;;;;2.60;2.37;;;16.40;85.50;;;;;;5030910;28;20459;-51
2021/03/24 10:04:13;;;;;;;5.00;2.40;;;16.90;83.60;;;;;;5023176;28;20487;-51
2021/03/24 10:06:50;;;;;;;3.70;3.30;;;17.50;84.80;;;;;;5032542;28;20448;-51
2021/03/24 10:09:25;;;;;;;12.40;3.00;;;17.90;79.90;;;;;;5012926;28;20438;-49
2021/03/24 10:12:03;;;;;;;5.67;2.73;;;17.50;84.50;;;;;;5013275;28;20473;-50
2021/03/24 10:14:36;;;;;;;2.73;2.50;;;17.60;78.70;;;;;;5013110;28;20527;-51
2021/03/24 10:17:07;;;;;;;3.70;2.60;;;17.60;83.10;;;;;;5021469;28;20467;-53
2021/03/24 10:19:41;;;;;;;2.47;2.27;;;17.30;82.90;;;;;;5032302;28;20871;-52
2021/03/24 10:22:12;;;;;;;3.23;2.33;;;17.20;82.10;;;;;;5032267;28;20993;-51
2021/03/24 10:24:44;;;;;;;4.00;2.47;;;17.60;81.90;;;;;;5032743;28;20542;-52
2021/03/24 10:27:14;;;;;;;4.73;3.57;;;17.30;81.60;;;;;;5026334;28;20448;-51
2021/03/24 10:29:48;;;;;;;9.33;7.37;;;17.50;79.50;;;;;;5039502;28;20962;-50
2021/03/24 10:32:26;;;;;;;10.67;7.67;;;17.00;86.40;;;;;;5032407;28;20532;-51
2021/03/24 10:34:59;;;;;;;12.33;8.83;;;17.00;90.60;;;;;;5012120;28;20943;-50
2021/03/24 10:37:33;;;;;;;12.57;9.97;;;16.60;90.20;;;;;;5012786;28;20457;-50
2021/03/24 10:40:05;;;;;;;15.47;10.67;;;15.60;92.50;;;;;;5012294;28;20830;-50
2021/03/24 10:42:37;;;;;;;14.07;9.87;;;15.80;92.10;;;;;;5012131;28;20465;-50
2021/03/24 10:45:20;;;;;;;11.63;9.00;;;16.30;92.30;;;;;;5015618;28;20472;-50
2021/03/24 10:47:52;;;;;;;16.77;10.40;;;16.50;91.10;;;;;;5031838;28;20844;-50
2021/03/24 10:50:36;;;;;;;18.13;10.80;;;16.50;91.80;;;;;;5031836;28;20535;-50
2021/03/24 10:53:21;;;;;;;17.17;11.87;;;16.20;93.50;;;;;;5031605;28;20469;-50
2021/03/24 10:56:01;;;;;;;18.13;11.93;;;14.60;94.90;;;;;;5031207;28;20532;-50
2021/03/24 10:58:46;;;;;;;17.90;11.50;;;14.00;95.50;;;;;;5031875;28;20441;-50
2021/03/24 11:01:17;;;;;;;15.60;9.60;;;13.80;96.40;;;;;;5015458;28;20894;-50
2021/03/24 11:04:03;;;;;;;17.20;10.70;;;14.00;92.40;;;;;;5031953;28;20515;-49
2021/03/24 11:06:36;;;;;;;18.10;9.80;;;13.60;94.40;;;;;;5031485;28;20510;-49
2021/03/24 11:09:08;;;;;;;14.63;9.57;;;14.00;94.90;;;;;;5038064;28;20455;-50
2021/03/24 11:11:40;;;;;;;17.30;9.93;;;14.20;93.70;;;;;;5043381;28;20500;-51
2021/03/24 11:14:13;;;;;;;15.87;9.27;;;14.50;95.70;;;;;;5036721;28;20448;-50
2021/03/24 11:16:43;;;;;;;15.10;9.20;;;14.30;94.20;;;;;;5030051;28;20460;-50
2021/03/24 11:19:17;;;;;;;14.43;8.73;;;13.40;93.90;;;;;;5031175;28;20992;-48
2021/03/24 11:21:58;;;;;;;16.93;9.10;;;12.80;94.50;;;;;;5031053;28;21065;-50
2021/03/24 11:24:29;;;;;;;14.33;7.80;;;13.10;96.40;;;;;;5031313;28;20484;-50
2021/03/24 11:27:12;;;;;;;17.50;9.00;;;13.40;92.30;;;;;;5031148;28;20538;-50
2021/03/24 11:30:13;;;;;;;13.90;8.07;;;13.40;93.80;;;;;;5030211;28;20448;-50
2021/03/24 11:32:46;;;;;;;14.47;7.40;;;13.00;94.10;;;;;;5016074;28;20472;-50
2021/03/24 11:35:22;;;;;;;15.60;8.40;;;13.20;93.40;;;;;;5026997;28;20451;-49
2021/03/24 11:37:56;;;;;;;13.80;7.80;;;12.80;95.00;;;;;;5031504;28;20448;-50
2021/03/24 11:40:39;;;;;;;13.40;7.73;;;12.10;93.90;;;;;;5031254;28;20442;-49
2021/03/24 11:43:15;;;;;;;14.53;7.07;;;11.90;96.70;;;;;;5031181;28;20475;-50
2021/03/24 11:45:44;;;;;;;13.87;7.90;;;12.00;94.50;;;;;;5031344;28;20439;-49
2021/03/24 11:48:34;;;;;;;16.43;7.80;;;12.40;94.30;;;;;;5025211;28;20445;-50
2021/03/24 11:51:11;;;;;;;13.10;7.23;;;12.50;93.00;;;;;;5012902;28;20450;-49
2021/03/24 11:53:49;;;;;;;11.32;6.60;;;12.90;93.20;;;;;;5029611;28;20914;-50
2021/03/24 11:56:25;;;;;;;13.43;7.20;;;12.90;93.10;;;;;;5030553;28;20209;-52
2021/03/24 11:59:03;;;;;;;11.83;6.93;;;12.90;92.90;;;;;;5030613;28;20452;-49
2021/03/24 12:01:42;;;;;;;11.90;6.27;;;12.80;91.80;;;;;;5031022;28;21180;-52
2021/03/24 12:04:29;;;;;;;14.03;6.70;;;13.10;91.60;;;;;;5013553;28;20842;-50
2021/03/24 12:07:08;;;;;;;15.43;6.73;;;13.40;91.70;;;;;;5010339;28;20441;-50
2021/03/24 12:09:39;;;;;;;11.60;6.90;;;13.00;92.40;;;;;;5017849;28;20493;-50
2021/03/24 12:12:15;;;;;;;12.90;7.07;;;13.10;92.30;;;;;;5029992;28;20468;-50
2021/03/24 12:14:43;;;;;;;12.70;7.73;;;13.20;90.80;;;;;;5030150;28;20443;-50
2021/03/24 12:17:28;;;;;;;11.77;6.67;;;13.50;90.30;;;;;;5030338;28;20440;-50
2021/03/24 12:20:07;;;;;;;10.73;6.23;;;13.50;90.60;;;;;;5028881;28;20449;-49
2021/03/24 12:22:33;;;;;;;13.30;6.10;;;13.70;93.00;;;;;;5029601;28;20549;-49
2021/03/24 12:25:06;;;;;;;11.23;5.93;;;14.00;90.20;;;;;;5029873;28;20507;-50
2021/03/24 12:27:33;;;;;;;11.77;7.77;;;14.00;88.10;;;;;;5030250;28;20445;-50
2021/03/24 12:30:04;;;;;;;8.83;6.00;;;13.90;88.70;;;;;;5030197;28;20456;-50
2021/03/24 12:32:35;;;;;;;16.70;6.70;;;13.80;90.20;;;;;;5030108;28;20461;-51
2021/03/24 12:35:04;;;;;;;14.00;6.33;;;13.90;91.30;;;;;;5029760;28;20506;-50
2021/03/24 12:37:35;;;;;;;12.37;6.53;;;13.70;93.70;;;;;;5016012;28;20461;-50
2021/03/24 12:40:23;;;;;;;10.47;5.93;;;13.80;91.40;;;;;;5011941;28;20450;-49
2021/03/24 12:42:50;;;;;;;13.60;8.50;;;14.10;90.40;;;;;;5030090;28;20472;-50
2021/03/24 12:45:32;;;;;;;8.40;5.77;;;14.10;90.30;;;;;;5034032;28;20484;-49
2021/03/24 12:48:11;;;;;;;8.73;5.73;;;14.20;88.70;;;;;;5048139;28;20551;-50
2021/03/24 12:50:48;;;;;;;8.03;5.80;;;14.20;88.90;;;;;;5050096;28;20451;-50
2021/03/24 12:53:32;;;;;;;11.03;6.50;;;13.50;90.40;;;;;;5043197;28;20481;-49
2021/03/24 12:56:28;;;;;;;7.77;5.50;;;13.40;90.10;;;;;;5029325;28;20444;-50
2021/03/24 12:58:58;;;;;;;11.70;6.17;;;13.50;89.30;;;;;;5050219;28;20960;-49
2021/03/24 13:01:33;;;;;;;11.73;6.20;;;13.50;91.90;;;;;;5050005;28;20467;-50
2021/03/24 13:04:42;;;;;;;10.83;5.00;;;13.40;90.10;;;;;;5047716;28;20518;-50
2021/03/24 13:07:32;;;;;;;14.70;5.47;;;13.60;89.80;;;;;;5045729;28;20463;-50
2021/03/24 13:10:34;;;;;;;7.27;4.73;;;13.60;89.80;;;;;;5010152;28;20448;-50
2021/03/24 13:13:12;;;;;;;6.70;4.33;;;13.20;88.80;;;;;;5028886;28;20495;-50
2021/03/24 13:15:48;;;;;;;12.70;6.30;;;13.40;88.40;;;;;;5040502;28;20444;-50
2021/03/24 13:18:21;;;;;;;8.23;5.83;;;13.80;89.30;;;;;;5053869;28;20443;-50
2021/03/24 13:21:13;;;;;;;9.40;5.60;;;13.80;89.60;;;;;;5048502;28;20584;-50
2021/03/24 13:23:47;;;;;;;8.30;5.60;;;13.80;89.00;;;;;;5033754;28;20456;-50
2021/03/24 13:26:20;;;;;;;7.80;4.87;;;13.90;91.60;;;;;;5015931;28;20449;-49
2021/03/24 13:28:53;;;;;;;7.90;5.30;;;13.80;91.30;;;;;;5013959;28;20456;-49
2021/03/24 13:31:24;;;;;;;10.20;5.27;;;13.50;90.70;;;;;;5014793;28;20469;-49
2021/03/24 13:34:18;;;;;;;9.93;5.47;;;13.20;93.00;;;;;;5026137;28;20444;-50